Aviation Digital Data Service (ADDS)

Output produced by METARs form (1834 UTC 25 September 2017)
found at http://aviationweather.gov/adds/metars/
 
KYNG 251720Z 2518/2618 13004KT P6SM SCT250